CST,Max TemperatureF,Mean TemperatureF,Min TemperatureF,Max Dew PointF,MeanDew PointF,Min DewpointF,Max Humidity, Mean Humidity, Min Humidity, Max Sea Level PressureIn, Mean Sea Level PressureIn, Min Sea Level PressureIn, Max VisibilityMiles, Mean VisibilityMiles, Min VisibilityMiles, Max Wind SpeedMPH, Mean Wind SpeedMPH, Max Gust SpeedMPH,PrecipitationIn, CloudCover, Events, WindDirDegrees
2013-12-1,58,51,44,48,42,35,83,67,51,30.25,30.11,29.95,10,10,10,12,4,14,T,8,Rain,166
2013-12-2,64,56,47,56,51,46,100,86,72,29.94,29.80,29.73,10,6,0,8,4,10,0.01,7,Fog-Rain,177
2013-12-3,73,61,48,63,57,48,100,84,68,29.76,29.70,29.62,9,4,0,16,6,22,0.00,5,Fog,165
2013-12-4,79,71,62,65,62,60,93,76,58,29.87,29.77,29.70,9,7,4,28,13,37,0.00,4,,189
2013-12-5,70,54,38,67,50,36,93,89,85,30.12,29.98,29.86,9,5,2,24,14,30,0.35,8,Rain,2
2013-12-6,38,34,29,36,33,25,96,89,82,30.44,30.15,30.04,10,4,1,25,16,32,1.62,8,Rain-Snow-Thunderstorm,8
2013-12-7,31,29,27,28,25,22,92,85,78,30.56,30.44,30.33,9,7,2,23,15,28,T,8,Rain,20
2013-12-8,37,33,29,36,32,27,100,91,82,30.33,30.19,30.11,7,4,1,12,4,13,0.09,8,Rain,7
2013-12-9,36,35,33,34,31,30,100,91,82,30.31,30.23,30.17,10,4,2,16,12,21,0.50,8,Rain,6
2013-12-10,41,35,29,31,29,27,92,76,60,30.50,30.38,30.25,10,8,5,18,7,23,T,4,,349
2013-12-11,48,38,27,36,30,26,92,74,56,30.59,30.49,30.43,10,8,4,13,6,81,0.00,0,,24
2013-12-12,45,37,28,29,25,22,85,63,40,30.67,30.56,30.44,10,9,7,14,6,18,0.00,0,,38
2013-12-13,47,38,28,45,33,24,96,75,53,30.40,30.13,29.86,10,8,2,17,6,21,0.50,4,Rain,116
2013-12-14,49,44,39,46,42,32,100,85,70,30.20,29.95,29.82,10,6,2,21,9,25,0.42,8,Rain,321
2013-12-15,41,36,30,32,30,27,89,77,65,30.35,30.29,30.18,7,6,4,20,7,25,0.00,5,,287
2013-12-16,58,44,29,37,32,28,92,66,40,30.34,30.28,30.23,10,8,3,15,9,20,0.00,0,,207
2013-12-17,64,50,36,45,37,31,100,70,40,30.32,30.27,30.22,10,9,2,13,5,15,0.00,0,,238
2013-12-18,63,49,34,42,38,33,92,69,46,30.38,30.28,30.17,10,9,3,15,7,18,0.00,0,,151
2013-12-19,65,52,39,55,46,36,89,76,63,30.18,30.09,29.98,10,10,6,17,9,21,0.00,5,,158
2013-12-20,71,66,61,64,60,55,87,80,73,30.02,29.94,29.84,10,8,5,29,12,92,0.00,6,,171
2013-12-21,77,72,64,68,64,62,87,78,69,29.82,29.67,29.52,10,7,0,30,19,50,0.20,7,Fog-Rain-Thunderstorm,182
2013-12-22,57,49,41,54,47,35,100,88,76,30.30,30.03,29.82,10,9,6,18,10,22,0.01,8,Rain,277
2013-12-23,41,36,30,33,28,27,85,75,64,30.57,30.47,30.31,10,10,8,20,10,24,0.00,5,,2
2013-12-24,40,34,28,29,27,25,92,76,59,30.64,30.55,30.44,10,10,8,14,5,17,0.00,1,,29
2013-12-25,49,37,24,35,29,23,92,73,53,30.47,30.41,30.35,10,10,8,10,3,14,0.00,0,,130
2013-12-26,53,41,29,36,32,28,100,74,48,30.49,30.42,30.38,10,9,5,13,4,15,0.00,0,,22
2013-12-27,54,41,28,36,31,25,100,66,32,30.51,30.44,30.40,10,8,1,9,2,12,0.00,0,,37
2013-12-28,46,42,38,43,40,34,86,78,70,30.36,30.16,29.99,10,8,4,7,3,9,0.02,6,Rain,42
2013-12-29,60,48,36,44,39,34,100,74,47,30.21,30.06,29.99,10,6,0,20,4,25,0.00,3,Fog,266
2013-12-30,41,38,34,32,29,28,89,80,70,30.43,30.30,30.20,10,8,7,16,10,21,0.00,8,,360
2013-12-31,42,35,28,32,29,27,100,80,60,30.52,30.44,30.34,9,7,4,7,2,8,0.00,0,,13